sensor_id;sensor_type;location;lat;lon;timestamp;pressure;altitude;pressure_sealevel;temperature;humidity
50636;BME280;36598;46.054;11.130;2023-02-20T00:00:25;100105.88;;;6.96;70.27
50636;BME280;36598;46.054;11.130;2023-02-20T00:02:51;100117.00;;;7.03;70.16
50636;BME280;36598;46.054;11.130;2023-02-20T00:05:17;100118.38;;;7.16;69.61
50636;BME280;36598;46.054;11.130;2023-02-20T00:07:42;100116.13;;;6.99;70.28
50636;BME280;36598;46.054;11.130;2023-02-20T00:10:08;100122.06;;;7.24;69.22
50636;BME280;36598;46.054;11.130;2023-02-20T00:12:33;100112.94;;;6.97;70.21
50636;BME280;36598;46.054;11.130;2023-02-20T00:14:59;100106.31;;;7.24;69.21
50636;BME280;36598;46.054;11.130;2023-02-20T00:17:24;100110.34;;;7.31;69.15
50636;BME280;36598;46.054;11.130;2023-02-20T00:19:49;100111.00;;;6.97;69.77
50636;BME280;36598;46.054;11.130;2023-02-20T00:22:15;100117.88;;;7.34;69.20
50636;BME280;36598;46.054;11.130;2023-02-20T00:24:40;100120.28;;;7.39;68.92
50636;BME280;36598;46.054;11.130;2023-02-20T00:27:05;100120.44;;;7.23;69.05
50636;BME280;36598;46.054;11.130;2023-02-20T00:29:31;100122.84;;;7.24;69.36
50636;BME280;36598;46.054;11.130;2023-02-20T00:31:56;100119.38;;;6.82;70.88
50636;BME280;36598;46.054;11.130;2023-02-20T00:34:23;100118.06;;;7.21;69.80
50636;BME280;36598;46.054;11.130;2023-02-20T00:36:48;100121.28;;;7.27;69.76
50636;BME280;36598;46.054;11.130;2023-02-20T00:39:14;100117.41;;;7.28;69.35
50636;BME280;36598;46.054;11.130;2023-02-20T00:41:39;100118.25;;;7.09;70.88
50636;BME280;36598;46.054;11.130;2023-02-20T00:44:04;100125.31;;;7.07;70.92
50636;BME280;36598;46.054;11.130;2023-02-20T00:46:29;100132.56;;;7.45;69.35
50636;BME280;36598;46.054;11.130;2023-02-20T00:48:55;100124.03;;;7.27;70.40
50636;BME280;36598;46.054;11.130;2023-02-20T00:51:20;100124.84;;;7.27;70.31
50636;BME280;36598;46.054;11.130;2023-02-20T00:53:45;100135.03;;;7.50;69.61
50636;BME280;36598;46.054;11.130;2023-02-20T00:56:10;100122.97;;;7.62;69.10
50636;BME280;36598;46.054;11.130;2023-02-20T00:58:36;100127.09;;;7.75;68.77
50636;BME280;36598;46.054;11.130;2023-02-20T01:01:01;100138.31;;;7.59;69.43
50636;BME280;36598;46.054;11.130;2023-02-20T01:03:26;100133.41;;;7.75;68.88
50636;BME280;36598;46.054;11.130;2023-02-20T01:05:52;100136.91;;;7.72;69.09
50636;BME280;36598;46.054;11.130;2023-02-20T01:08:17;100129.16;;;7.82;68.98
50636;BME280;36598;46.054;11.130;2023-02-20T01:10:42;100127.59;;;7.81;68.79
50636;BME280;36598;46.054;11.130;2023-02-20T01:13:07;100134.91;;;7.69;69.42
50636;BME280;36598;46.054;11.130;2023-02-20T01:15:33;100131.22;;;7.58;70.10
50636;BME280;36598;46.054;11.130;2023-02-20T01:17:58;100129.88;;;7.22;71.30
50636;BME280;36598;46.054;11.130;2023-02-20T01:20:23;100123.91;;;7.43;70.47
50636;BME280;36598;46.054;11.130;2023-02-20T01:22:48;100125.47;;;7.44;70.38
50636;BME280;36598;46.054;11.130;2023-02-20T01:25:14;100131.72;;;7.41;70.77
50636;BME280;36598;46.054;11.130;2023-02-20T01:27:39;100134.72;;;7.32;71.01
50636;BME280;36598;46.054;11.130;2023-02-20T01:30:05;100143.88;;;7.63;69.81
50636;BME280;36598;46.054;11.130;2023-02-20T01:32:31;100147.75;;;7.58;69.81
50636;BME280;36598;46.054;11.130;2023-02-20T01:34:56;100148.72;;;7.46;70.23
50636;BME280;36598;46.054;11.130;2023-02-20T01:37:22;100150.69;;;7.46;70.24
50636;BME280;36598;46.054;11.130;2023-02-20T01:39:47;100161.50;;;7.58;70.09
50636;BME280;36598;46.054;11.130;2023-02-20T01:42:13;100163.19;;;7.40;70.34
50636;BME280;36598;46.054;11.130;2023-02-20T01:44:41;100157.91;;;7.54;69.73
50636;BME280;36598;46.054;11.130;2023-02-20T01:47:08;100155.22;;;7.61;69.34
50636;BME280;36598;46.054;11.130;2023-02-20T01:49:37;100165.72;;;7.52;70.03
50636;BME280;36598;46.054;11.130;2023-02-20T01:52:12;100174.44;;;7.54;69.96
50636;BME280;36598;46.054;11.130;2023-02-20T01:54:39;100168.84;;;7.50;70.00
50636;BME280;36598;46.054;11.130;2023-02-20T01:57:07;100170.03;;;7.26;70.90
50636;BME280;36598;46.054;11.130;2023-02-20T01:59:36;100161.59;;;7.39;70.24
50636;BME280;36598;46.054;11.130;2023-02-20T02:02:03;100173.56;;;7.50;70.28
50636;BME280;36598;46.054;11.130;2023-02-20T02:04:29;100176.69;;;7.48;70.71
50636;BME280;36598;46.054;11.130;2023-02-20T02:06:54;100178.50;;;7.14;72.08
50636;BME280;36598;46.054;11.130;2023-02-20T02:09:25;100171.53;;;7.20;71.90
50636;BME280;36598;46.054;11.130;2023-02-20T02:11:53;100178.75;;;7.55;70.53
50636;BME280;36598;46.054;11.130;2023-02-20T02:14:19;100182.84;;;7.65;70.39
50636;BME280;36598;46.054;11.130;2023-02-20T02:19:22;100178.06;;;7.62;70.31
50636;BME280;36598;46.054;11.130;2023-02-20T02:40:00;100173.50;;;7.73;70.22
50636;BME280;36598;46.054;11.130;2023-02-20T02:50:03;100173.34;;;7.89;69.44
50636;BME280;36598;46.054;11.130;2023-02-20T02:52:30;100183.41;;;7.77;69.82
50636;BME280;36598;46.054;11.130;2023-02-20T02:55:03;100178.63;;;7.71;70.97
50636;BME280;36598;46.054;11.130;2023-02-20T02:57:29;100175.31;;;7.62;71.07
50636;BME280;36598;46.054;11.130;2023-02-20T02:59:59;100170.09;;;7.80;71.21
50636;BME280;36598;46.054;11.130;2023-02-20T03:02:26;100165.31;;;7.76;70.26
50636;BME280;36598;46.054;11.130;2023-02-20T03:04:52;100167.91;;;7.92;69.93
50636;BME280;36598;46.054;11.130;2023-02-20T03:07:19;100161.84;;;7.57;71.09
50636;BME280;36598;46.054;11.130;2023-02-20T03:09:46;100163.91;;;7.90;70.05
50636;BME280;36598;46.054;11.130;2023-02-20T03:12:14;100165.53;;;7.94;69.99
50636;BME280;36598;46.054;11.130;2023-02-20T03:14:41;100170.94;;;7.84;69.14
50636;BME280;36598;46.054;11.130;2023-02-20T03:17:29;100175.66;;;7.87;68.16
50636;BME280;36598;46.054;11.130;2023-02-20T03:19:59;100183.75;;;7.72;68.27
50636;BME280;36598;46.054;11.130;2023-02-20T03:22:29;100189.63;;;7.71;68.06
50636;BME280;36598;46.054;11.130;2023-02-20T03:24:59;100191.84;;;7.62;68.53
50636;BME280;36598;46.054;11.130;2023-02-20T03:29:52;100202.81;;;7.58;69.03
50636;BME280;36598;46.054;11.130;2023-02-20T03:32:20;100205.78;;;7.46;69.33
50636;BME280;36598;46.054;11.130;2023-02-20T03:35:07;100210.84;;;7.44;69.78
50636;BME280;36598;46.054;11.130;2023-02-20T03:37:51;100214.38;;;7.44;69.45
50636;BME280;36598;46.054;11.130;2023-02-20T03:40:36;100225.41;;;7.44;69.29
50636;BME280;36598;46.054;11.130;2023-02-20T03:43:20;100224.97;;;7.42;69.62
50636;BME280;36598;46.054;11.130;2023-02-20T03:45:47;100225.78;;;7.43;69.43
50636;BME280;36598;46.054;11.130;2023-02-20T03:48:14;100221.31;;;7.35;69.39
50636;BME280;36598;46.054;11.130;2023-02-20T03:50:40;100223.66;;;7.33;69.40
50636;BME280;36598;46.054;11.130;2023-02-20T03:53:25;100228.41;;;7.59;69.03
50636;BME280;36598;46.054;11.130;2023-02-20T03:55:50;100222.91;;;7.62;68.85
50636;BME280;36598;46.054;11.130;2023-02-20T03:58:18;100228.94;;;7.68;68.79
50636;BME280;36598;46.054;11.130;2023-02-20T04:00:47;100232.56;;;7.49;69.36
50636;BME280;36598;46.054;11.130;2023-02-20T04:03:17;100235.63;;;7.44;69.70
50636;BME280;36598;46.054;11.130;2023-02-20T04:05:44;100240.34;;;7.20;69.96
50636;BME280;36598;46.054;11.130;2023-02-20T04:08:13;100234.59;;;7.29;69.68
50636;BME280;36598;46.054;11.130;2023-02-20T04:10:43;100240.16;;;7.33;69.49
50636;BME280;36598;46.054;11.130;2023-02-20T04:13:11;100244.66;;;7.44;69.05
50636;BME280;36598;46.054;11.130;2023-02-20T04:15:37;100245.16;;;7.27;69.67
50636;BME280;36598;46.054;11.130;2023-02-20T04:18:04;100242.66;;;7.18;69.61
50636;BME280;36598;46.054;11.130;2023-02-20T04:20:30;100254.09;;;7.20;69.63
50636;BME280;36598;46.054;11.130;2023-02-20T04:22:57;100260.41;;;7.21;69.46
50636;BME280;36598;46.054;11.130;2023-02-20T04:25:29;100260.28;;;7.14;69.20
50636;BME280;36598;46.054;11.130;2023-02-20T04:27:59;100251.22;;;7.13;69.04
50636;BME280;36598;46.054;11.130;2023-02-20T04:30:25;100259.22;;;6.99;69.35
50636;BME280;36598;46.054;11.130;2023-02-20T04:32:50;100257.19;;;6.76;70.08
50636;BME280;36598;46.054;11.130;2023-02-20T04:35:16;100250.97;;;6.80;69.72
50636;BME280;36598;46.054;11.130;2023-02-20T04:37:43;100254.28;;;6.89;69.39
50636;BME280;36598;46.054;11.130;2023-02-20T04:40:09;100260.41;;;6.78;70.21
50636;BME280;36598;46.054;11.130;2023-02-20T04:42:34;100258.16;;;6.65;69.91
50636;BME280;36598;46.054;11.130;2023-02-20T04:44:59;100261.41;;;6.90;69.14
50636;BME280;36598;46.054;11.130;2023-02-20T04:47:25;100270.75;;;6.85;69.54
50636;BME280;36598;46.054;11.130;2023-02-20T04:49:50;100276.31;;;6.69;69.42
50636;BME280;36598;46.054;11.130;2023-02-20T04:52:15;100280.53;;;6.83;69.26
50636;BME280;36598;46.054;11.130;2023-02-20T04:54:40;100279.06;;;6.69;69.36
50636;BME280;36598;46.054;11.130;2023-02-20T04:57:06;100276.97;;;6.82;68.94
50636;BME280;36598;46.054;11.130;2023-02-20T04:59:31;100282.03;;;6.80;68.55
50636;BME280;36598;46.054;11.130;2023-02-20T05:01:56;100281.13;;;6.72;68.62
50636;BME280;36598;46.054;11.130;2023-02-20T05:04:24;100278.91;;;6.62;68.86
50636;BME280;36598;46.054;11.130;2023-02-20T05:06:51;100285.13;;;6.59;69.26
50636;BME280;36598;46.054;11.130;2023-02-20T05:09:16;100287.88;;;6.59;69.34
50636;BME280;36598;46.054;11.130;2023-02-20T05:11:42;100290.34;;;6.84;68.59
50636;BME280;36598;46.054;11.130;2023-02-20T05:14:07;100294.78;;;6.69;68.70
50636;BME280;36598;46.054;11.130;2023-02-20T05:16:32;100286.66;;;6.95;67.79
50636;BME280;36598;46.054;11.130;2023-02-20T05:18:58;100295.41;;;7.01;67.27
50636;BME280;36598;46.054;11.130;2023-02-20T05:21:25;100301.81;;;6.86;66.90
50636;BME280;36598;46.054;11.130;2023-02-20T05:24:09;100306.31;;;6.94;66.79
50636;BME280;36598;46.054;11.130;2023-02-20T05:26:34;100301.63;;;6.59;68.00
50636;BME280;36598;46.054;11.130;2023-02-20T05:28:59;100301.72;;;6.63;67.70
50636;BME280;36598;46.054;11.130;2023-02-20T05:31:25;100306.25;;;6.55;67.97
50636;BME280;36598;46.054;11.130;2023-02-20T05:33:50;100299.72;;;6.60;67.88
50636;BME280;36598;46.054;11.130;2023-02-20T05:36:15;100307.28;;;6.47;68.65
50636;BME280;36598;46.054;11.130;2023-02-20T05:38:41;100318.63;;;6.45;68.62
50636;BME280;36598;46.054;11.130;2023-02-20T05:41:11;100314.81;;;6.50;68.90
50636;BME280;36598;46.054;11.130;2023-02-20T05:43:37;100317.72;;;6.57;68.68
50636;BME280;36598;46.054;11.130;2023-02-20T05:46:02;100322.53;;;6.44;69.16
50636;BME280;36598;46.054;11.130;2023-02-20T05:48:27;100320.00;;;6.36;68.84
50636;BME280;36598;46.054;11.130;2023-02-20T05:50:53;100327.06;;;6.17;70.35
50636;BME280;36598;46.054;11.130;2023-02-20T05:53:18;100324.31;;;6.01;70.27
50636;BME280;36598;46.054;11.130;2023-02-20T05:55:44;100329.72;;;6.14;70.22
50636;BME280;36598;46.054;11.130;2023-02-20T05:58:09;100337.75;;;6.22;70.19
50636;BME280;36598;46.054;11.130;2023-02-20T06:00:34;100334.25;;;6.41;69.33
50636;BME280;36598;46.054;11.130;2023-02-20T06:03:00;100339.91;;;6.13;69.98
50636;BME280;36598;46.054;11.130;2023-02-20T06:05:25;100347.06;;;6.18;70.14
50636;BME280;36598;46.054;11.130;2023-02-20T06:07:52;100350.81;;;6.25;69.85
50636;BME280;36598;46.054;11.130;2023-02-20T06:10:17;100355.91;;;6.43;68.69
50636;BME280;36598;46.054;11.130;2023-02-20T06:12:43;100365.66;;;6.40;69.13
50636;BME280;36598;46.054;11.130;2023-02-20T06:15:08;100363.28;;;6.39;68.79
50636;BME280;36598;46.054;11.130;2023-02-20T06:17:34;100364.69;;;6.33;69.19
50636;BME280;36598;46.054;11.130;2023-02-20T06:19:59;100379.03;;;6.42;68.96
50636;BME280;36598;46.054;11.130;2023-02-20T06:22:24;100380.19;;;6.41;68.77
50636;BME280;36598;46.054;11.130;2023-02-20T06:24:50;100374.28;;;6.39;69.04
50636;BME280;36598;46.054;11.130;2023-02-20T06:27:15;100379.03;;;6.42;68.63
50636;BME280;36598;46.054;11.130;2023-02-20T06:29:41;100385.59;;;6.37;68.68
50636;BME280;36598;46.054;11.130;2023-02-20T06:32:06;100392.06;;;6.45;68.87
50636;BME280;36598;46.054;11.130;2023-02-20T06:34:32;100393.34;;;6.32;69.45
50636;BME280;36598;46.054;11.130;2023-02-20T06:37:01;100398.41;;;5.98;70.14
50636;BME280;36598;46.054;11.130;2023-02-20T06:39:27;100397.50;;;5.94;70.84
50636;BME280;36598;46.054;11.130;2023-02-20T06:41:52;100399.34;;;6.37;69.23
50636;BME280;36598;46.054;11.130;2023-02-20T06:44:17;100405.38;;;6.43;69.09
50636;BME280;36598;46.054;11.130;2023-02-20T06:46:43;100404.34;;;6.32;69.20
50636;BME280;36598;46.054;11.130;2023-02-20T06:49:08;100402.88;;;6.53;68.62
50636;BME280;36598;46.054;11.130;2023-02-20T06:51:34;100412.38;;;6.56;68.37
50636;BME280;36598;46.054;11.130;2023-02-20T06:54:01;100422.31;;;6.80;67.55
50636;BME280;36598;46.054;11.130;2023-02-20T06:56:27;100423.44;;;6.95;67.24
50636;BME280;36598;46.054;11.130;2023-02-20T06:58:53;100420.69;;;6.95;67.19
50636;BME280;36598;46.054;11.130;2023-02-20T07:01:20;100424.09;;;7.08;66.02
50636;BME280;36598;46.054;11.130;2023-02-20T07:03:46;100428.22;;;6.98;66.75
50636;BME280;36598;46.054;11.130;2023-02-20T07:06:13;100440.13;;;7.21;65.59
50636;BME280;36598;46.054;11.130;2023-02-20T07:08:38;100438.41;;;7.33;65.54
50636;BME280;36598;46.054;11.130;2023-02-20T07:11:03;100434.59;;;7.41;64.11
50636;BME280;36598;46.054;11.130;2023-02-20T07:13:29;100433.88;;;7.05;64.65
50636;BME280;36598;46.054;11.130;2023-02-20T07:15:54;100432.44;;;7.11;64.63
50636;BME280;36598;46.054;11.130;2023-02-20T07:18:19;100433.88;;;7.05;64.52
50636;BME280;36598;46.054;11.130;2023-02-20T07:20:48;100433.31;;;7.35;63.77
50636;BME280;36598;46.054;11.130;2023-02-20T07:23:13;100426.78;;;7.43;63.39
50636;BME280;36598;46.054;11.130;2023-02-20T07:25:38;100433.50;;;7.65;62.90
50636;BME280;36598;46.054;11.130;2023-02-20T07:28:04;100432.88;;;7.52;63.44
50636;BME280;36598;46.054;11.130;2023-02-20T07:30:32;100428.28;;;7.60;63.31
50636;BME280;36598;46.054;11.130;2023-02-20T07:32:57;100435.75;;;7.59;62.75
50636;BME280;36598;46.054;11.130;2023-02-20T07:35:22;100430.31;;;8.05;61.47
50636;BME280;36598;46.054;11.130;2023-02-20T07:37:48;100428.25;;;8.25;60.36
50636;BME280;36598;46.054;11.130;2023-02-20T07:40:13;100423.13;;;8.23;59.71
50636;BME280;36598;46.054;11.130;2023-02-20T07:42:38;100431.41;;;8.23;59.56
50636;BME280;36598;46.054;11.130;2023-02-20T07:45:03;100433.78;;;8.25;59.75
50636;BME280;36598;46.054;11.130;2023-02-20T07:47:29;100434.94;;;8.24;60.13
50636;BME280;36598;46.054;11.130;2023-02-20T07:49:54;100436.66;;;8.09;60.88
50636;BME280;36598;46.054;11.130;2023-02-20T07:52:19;100442.53;;;8.31;60.28
50636;BME280;36598;46.054;11.130;2023-02-20T07:54:45;100434.88;;;8.20;60.91
50636;BME280;36598;46.054;11.130;2023-02-20T07:57:10;100441.31;;;8.51;59.92
50636;BME280;36598;46.054;11.130;2023-02-20T07:59:35;100432.94;;;8.44;60.26
50636;BME280;36598;46.054;11.130;2023-02-20T08:02:01;100439.19;;;8.67;59.96
50636;BME280;36598;46.054;11.130;2023-02-20T08:04:26;100437.69;;;8.73;59.07
50636;BME280;36598;46.054;11.130;2023-02-20T08:06:51;100435.75;;;8.24;60.06
50636;BME280;36598;46.054;11.130;2023-02-20T08:09:17;100434.50;;;8.22;60.76
50636;BME280;36598;46.054;11.130;2023-02-20T08:11:42;100438.63;;;8.32;60.74
50636;BME280;36598;46.054;11.130;2023-02-20T08:14:07;100439.66;;;8.46;60.32
50636;BME280;36598;46.054;11.130;2023-02-20T08:16:33;100433.78;;;8.74;59.63
50636;BME280;36598;46.054;11.130;2023-02-20T08:18:58;100432.94;;;8.44;60.29
50636;BME280;36598;46.054;11.130;2023-02-20T08:21:23;100433.25;;;8.92;58.43
50636;BME280;36598;46.054;11.130;2023-02-20T08:23:49;100434.84;;;8.93;58.57
50636;BME280;36598;46.054;11.130;2023-02-20T08:26:16;100430.88;;;8.64;59.33
50636;BME280;36598;46.054;11.130;2023-02-20T08:28:41;100436.22;;;8.80;59.05
50636;BME280;36598;46.054;11.130;2023-02-20T08:31:07;100424.66;;;8.70;59.32
50636;BME280;36598;46.054;11.130;2023-02-20T08:33:34;100428.34;;;8.82;57.85
50636;BME280;36598;46.054;11.130;2023-02-20T08:36:03;100431.69;;;8.94;58.61
50636;BME280;36598;46.054;11.130;2023-02-20T08:38:34;100428.00;;;8.83;59.11
50636;BME280;36598;46.054;11.130;2023-02-20T08:41:04;100430.09;;;8.93;57.94
50636;BME280;36598;46.054;11.130;2023-02-20T08:43:32;100421.00;;;8.63;59.04
50636;BME280;36598;46.054;11.130;2023-02-20T08:45:58;100411.78;;;9.08;58.15
50636;BME280;36598;46.054;11.130;2023-02-20T08:48:24;100417.25;;;9.05;57.32
50636;BME280;36598;46.054;11.130;2023-02-20T08:50:51;100409.22;;;8.66;59.43
50636;BME280;36598;46.054;11.130;2023-02-20T08:53:18;100411.22;;;8.95;58.37
50636;BME280;36598;46.054;11.130;2023-02-20T08:55:45;100405.03;;;9.06;58.13
50636;BME280;36598;46.054;11.130;2023-02-20T08:58:11;100402.50;;;9.23;57.30
50636;BME280;36598;46.054;11.130;2023-02-20T09:00:38;100404.84;;;8.91;57.35
50636;BME280;36598;46.054;11.130;2023-02-20T09:03:04;100409.66;;;8.98;57.00
50636;BME280;36598;46.054;11.130;2023-02-20T09:05:33;100396.88;;;9.16;56.88
50636;BME280;36598;46.054;11.130;2023-02-20T09:08:00;100394.78;;;9.06;56.48
50636;BME280;36598;46.054;11.130;2023-02-20T09:10:27;100393.13;;;9.32;56.44
50636;BME280;36598;46.054;11.130;2023-02-20T09:12:54;100380.66;;;8.81;58.09
50636;BME280;36598;46.054;11.130;2023-02-20T09:15:20;100379.97;;;8.88;58.28
50636;BME280;36598;46.054;11.130;2023-02-20T09:17:48;100377.28;;;8.95;58.12
50636;BME280;36598;46.054;11.130;2023-02-20T09:20:20;100387.50;;;8.91;58.52
50636;BME280;36598;46.054;11.130;2023-02-20T09:22:49;100388.94;;;8.81;59.39
50636;BME280;36598;46.054;11.130;2023-02-20T09:25:17;100385.66;;;8.45;59.49
50636;BME280;36598;46.054;11.130;2023-02-20T09:27:46;100385.59;;;8.68;59.23
50636;BME280;36598;46.054;11.130;2023-02-20T09:30:15;100379.75;;;8.73;58.83
50636;BME280;36598;46.054;11.130;2023-02-20T09:32:45;100379.03;;;8.50;59.42
50636;BME280;36598;46.054;11.130;2023-02-20T09:35:17;100378.09;;;8.65;59.51
50636;BME280;36598;46.054;11.130;2023-02-20T09:37:45;100377.44;;;8.75;59.66
50636;BME280;36598;46.054;11.130;2023-02-20T09:40:12;100374.66;;;8.75;59.83
50636;BME280;36598;46.054;11.130;2023-02-20T09:45:26;100367.06;;;8.95;58.43
50636;BME280;36598;46.054;11.130;2023-02-20T09:55:45;100367.41;;;8.94;58.94
50636;BME280;36598;46.054;11.130;2023-02-20T09:58:17;100361.88;;;8.94;58.29
50636;BME280;36598;46.054;11.130;2023-02-20T10:00:44;100360.56;;;9.14;58.52
50636;BME280;36598;46.054;11.130;2023-02-20T10:03:12;100367.31;;;9.17;58.22
50636;BME280;36598;46.054;11.130;2023-02-20T10:05:40;100365.31;;;8.84;58.76
50636;BME280;36598;46.054;11.130;2023-02-20T10:08:07;100365.69;;;9.12;58.39
50636;BME280;36598;46.054;11.130;2023-02-20T10:10:33;100363.56;;;9.36;57.64
50636;BME280;36598;46.054;11.130;2023-02-20T10:25:40;100375.81;;;10.23;54.74
50636;BME280;36598;46.054;11.130;2023-02-20T10:28:17;100374.38;;;10.37;54.36
50636;BME280;36598;46.054;11.130;2023-02-20T10:30:47;100378.00;;;10.48;54.25
50636;BME280;36598;46.054;11.130;2023-02-20T10:35:54;100381.22;;;10.57;53.51
50636;BME280;36598;46.054;11.130;2023-02-20T10:38:22;100381.47;;;10.34;54.21
50636;BME280;36598;46.054;11.130;2023-02-20T10:40:57;100377.09;;;10.95;52.76
50636;BME280;36598;46.054;11.130;2023-02-20T10:46:02;100373.03;;;10.78;52.77
50636;BME280;36598;46.054;11.130;2023-02-20T10:48:31;100373.38;;;10.70;52.76
50636;BME280;36598;46.054;11.130;2023-02-20T10:51:05;100370.38;;;11.00;52.54
50636;BME280;36598;46.054;11.130;2023-02-20T10:53:34;100371.66;;;10.44;53.83
50636;BME280;36598;46.054;11.130;2023-02-20T10:56:07;100359.72;;;9.44;57.15
50636;BME280;36598;46.054;11.130;2023-02-20T11:01:32;100344.09;;;10.58;54.06
50636;BME280;36598;46.054;11.130;2023-02-20T11:04:08;100351.69;;;10.79;53.31
50636;BME280;36598;46.054;11.130;2023-02-20T11:06:45;100348.59;;;10.88;52.78
50636;BME280;36598;46.054;11.130;2023-02-20T11:09:11;100352.38;;;11.70;50.88
50636;BME280;36598;46.054;11.130;2023-02-20T11:11:38;100344.72;;;11.10;52.50
50636;BME280;36598;46.054;11.130;2023-02-20T11:14:11;100345.28;;;11.84;50.97
50636;BME280;36598;46.054;11.130;2023-02-20T11:16:54;100342.91;;;12.14;50.04
50636;BME280;36598;46.054;11.130;2023-02-20T11:19:30;100340.53;;;12.16;49.58
50636;BME280;36598;46.054;11.130;2023-02-20T11:21:58;100336.53;;;12.42;49.26
50636;BME280;36598;46.054;11.130;2023-02-20T11:24:33;100334.03;;;12.84;48.05
50636;BME280;36598;46.054;11.130;2023-02-20T11:27:09;100325.09;;;12.05;49.38
50636;BME280;36598;46.054;11.130;2023-02-20T11:29:37;100328.44;;;12.98;47.80
50636;BME280;36598;46.054;11.130;2023-02-20T11:32:17;100316.91;;;13.69;46.66
50636;BME280;36598;46.054;11.130;2023-02-20T11:34:46;100318.38;;;13.88;46.13
50636;BME280;36598;46.054;11.130;2023-02-20T11:37:11;100318.19;;;14.85;43.86
50636;BME280;36598;46.054;11.130;2023-02-20T11:39:38;100309.78;;;15.19;43.59
50636;BME280;36598;46.054;11.130;2023-02-20T11:42:16;100306.97;;;14.17;44.30
50636;BME280;36598;46.054;11.130;2023-02-20T11:44:42;100298.91;;;14.67;43.64
50636;BME280;36598;46.054;11.130;2023-02-20T11:47:18;100290.84;;;15.61;41.71
50636;BME280;36598;46.054;11.130;2023-02-20T11:49:45;100289.31;;;15.02;42.84
50636;BME280;36598;46.054;11.130;2023-02-20T11:54:42;100270.00;;;15.15;42.73
50636;BME280;36598;46.054;11.130;2023-02-20T11:57:18;100269.41;;;15.31;42.38
50636;BME280;36598;46.054;11.130;2023-02-20T11:59:45;100260.69;;;16.66;40.36
50636;BME280;36598;46.054;11.130;2023-02-20T12:04:37;100256.25;;;16.89;39.13
50636;BME280;36598;46.054;11.130;2023-02-20T12:07:24;100258.47;;;16.77;39.38
50636;BME280;36598;46.054;11.130;2023-02-20T12:09:51;100243.31;;;16.95;39.27
50636;BME280;36598;46.054;11.130;2023-02-20T12:12:17;100243.44;;;17.08;38.59
50636;BME280;36598;46.054;11.130;2023-02-20T12:14:47;100228.28;;;17.74;37.65
50636;BME280;36598;46.054;11.130;2023-02-20T12:17:18;100228.78;;;16.84;39.62
50636;BME280;36598;46.054;11.130;2023-02-20T12:22:17;100207.34;;;17.95;37.46
50636;BME280;36598;46.054;11.130;2023-02-20T12:29:56;100181.97;;;17.86;38.48
50636;BME280;36598;46.054;11.130;2023-02-20T12:32:30;100174.31;;;17.24;39.87
50636;BME280;36598;46.054;11.130;2023-02-20T12:45:14;100138.66;;;17.28;39.51
50636;BME280;36598;46.054;11.130;2023-02-20T12:47:42;100137.09;;;17.11;39.37
50636;BME280;36598;46.054;11.130;2023-02-20T12:50:20;100150.53;;;16.84;39.98
50636;BME280;36598;46.054;11.130;2023-02-20T12:58:25;100132.56;;;16.65;40.44
50636;BME280;36598;46.054;11.130;2023-02-20T13:00:57;100114.47;;;16.89;39.87
50636;BME280;36598;46.054;11.130;2023-02-20T13:05:51;100090.31;;;16.63;40.10
50636;BME280;36598;46.054;11.130;2023-02-20T13:08:20;100089.84;;;16.64;40.63
50636;BME280;36598;46.054;11.130;2023-02-20T13:13:19;100076.41;;;16.59;40.41
50636;BME280;36598;46.054;11.130;2023-02-20T13:15:55;100054.59;;;16.70;40.04
50636;BME280;36598;46.054;11.130;2023-02-20T13:18:28;100051.00;;;16.70;40.64
50636;BME280;36598;46.054;11.130;2023-02-20T13:21:04;100047.72;;;16.75;39.97
50636;BME280;36598;46.054;11.130;2023-02-20T13:23:34;100038.63;;;16.71;40.31
50636;BME280;36598;46.054;11.130;2023-02-20T13:25:59;100031.22;;;16.97;39.62
50636;BME280;36598;46.054;11.130;2023-02-20T13:28:40;100032.88;;;16.94;39.34
50636;BME280;36598;46.054;11.130;2023-02-20T13:31:16;100023.53;;;16.85;39.06
50636;BME280;36598;46.054;11.130;2023-02-20T14:00:29;99980.72;;;16.71;39.89
50636;BME280;36598;46.054;11.130;2023-02-20T14:02:59;99978.38;;;16.37;39.87
50636;BME280;36598;46.054;11.130;2023-02-20T14:05:28;99984.03;;;16.66;39.34
50636;BME280;36598;46.054;11.130;2023-02-20T14:07:54;99976.97;;;16.62;39.81
50636;BME280;36598;46.054;11.130;2023-02-20T14:13:02;99968.91;;;16.15;40.20
50636;BME280;36598;46.054;11.130;2023-02-20T14:15:29;99976.31;;;15.69;41.33
50636;BME280;36598;46.054;11.130;2023-02-20T14:17:55;99977.97;;;15.63;41.71
50636;BME280;36598;46.054;11.130;2023-02-20T14:20:24;99980.88;;;15.59;41.79
50636;BME280;36598;46.054;11.130;2023-02-20T14:25:35;99959.97;;;15.47;41.78
50636;BME280;36598;46.054;11.130;2023-02-20T14:28:05;99970.56;;;15.16;42.37
50636;BME280;36598;46.054;11.130;2023-02-20T14:30:30;99964.47;;;15.41;41.93
50636;BME280;36598;46.054;11.130;2023-02-20T14:32:56;99956.53;;;15.40;42.31
50636;BME280;36598;46.054;11.130;2023-02-20T14:35:26;99958.28;;;15.34;42.71
50636;BME280;36598;46.054;11.130;2023-02-20T14:42:59;99956.34;;;14.87;42.69
50636;BME280;36598;46.054;11.130;2023-02-20T14:45:25;99951.66;;;15.24;42.12
50636;BME280;36598;46.054;11.130;2023-02-20T14:47:59;99942.81;;;14.86;42.99
50636;BME280;36598;46.054;11.130;2023-02-20T14:50:32;99941.03;;;14.99;43.27
50636;BME280;36598;46.054;11.130;2023-02-20T14:53:02;99945.41;;;14.53;43.60
50636;BME280;36598;46.054;11.130;2023-02-20T14:55:28;99955.72;;;14.02;44.78
50636;BME280;36598;46.054;11.130;2023-02-20T14:57:54;99955.09;;;14.41;44.19
50636;BME280;36598;46.054;11.130;2023-02-20T15:02:46;99960.41;;;14.83;43.32
50636;BME280;36598;46.054;11.130;2023-02-20T15:05:23;99954.22;;;14.95;43.17